sensor_id;sensor_type;location;lat;lon;timestamp;pressure;altitude;pressure_sealevel;temperature;humidity
11212;BME280;5663;50.864;12.096;2023-05-23T07:02:04;99107.59;;;19.69;71.20
11212;BME280;5663;50.864;12.096;2023-05-23T07:05:25;99105.22;;;19.66;71.27
11212;BME280;5663;50.864;12.096;2023-05-23T07:08:00;99101.22;;;19.52;70.85
11212;BME280;5663;50.864;12.096;2023-05-23T07:10:42;99114.78;;;19.57;70.73
11212;BME280;5663;50.864;12.096;2023-05-23T07:13:46;99098.16;;;19.47;70.12
11212;BME280;5663;50.864;12.096;2023-05-23T07:16:57;99134.78;;;19.50;70.08
11212;BME280;5663;50.864;12.096;2023-05-23T07:20:15;99049.38;;;18.85;70.01
11212;BME280;5663;50.864;12.096;2023-05-23T07:23:02;99142.31;;;19.35;69.75
11212;BME280;5663;50.864;12.096;2023-05-23T07:25:36;99141.75;;;19.32;69.11
11212;BME280;5663;50.864;12.096;2023-05-23T07:28:09;99142.31;;;19.26;69.02
11212;BME280;5663;50.864;12.096;2023-05-23T07:31:11;99148.16;;;19.19;68.97
11212;BME280;5663;50.864;12.096;2023-05-23T07:33:43;99145.91;;;19.15;68.87
11212;BME280;5663;50.864;12.096;2023-05-23T07:36:18;99089.88;;;18.84;68.65
11212;BME280;5663;50.864;12.096;2023-05-23T07:38:53;99158.97;;;19.16;69.19
11212;BME280;5663;50.864;12.096;2023-05-23T07:42:13;99157.31;;;19.15;68.60
11212;BME280;5663;50.864;12.096;2023-05-23T07:45:16;99151.06;;;19.16;68.04
11212;BME280;5663;50.864;12.096;2023-05-23T07:47:48;99148.84;;;19.22;68.05
11212;BME280;5663;50.864;12.096;2023-05-23T08:02:41;99151.19;;;19.54;66.00
11212;BME280;5663;50.864;12.096;2023-05-23T08:05:55;99169.09;;;19.50;66.09
11212;BME280;5663;50.864;12.096;2023-05-23T08:08:23;99156.72;;;19.51;65.08
11212;BME280;5663;50.864;12.096;2023-05-23T08:11:15;99155.63;;;19.53;65.39
11212;BME280;5663;50.864;12.096;2023-05-23T08:13:55;99161.19;;;19.60;65.60
11212;BME280;5663;50.864;12.096;2023-05-23T08:16:25;99155.63;;;19.73;65.58
11212;BME280;5663;50.864;12.096;2023-05-23T08:19:02;99156.16;;;19.86;65.27
11212;BME280;5663;50.864;12.096;2023-05-23T08:21:43;99161.97;;;19.99;65.47
11212;BME280;5663;50.864;12.096;2023-05-23T08:24:11;99153.84;;;20.10;64.67
11212;BME280;5663;50.864;12.096;2023-05-23T08:26:39;99152.69;;;20.23;64.34
11212;BME280;5663;50.864;12.096;2023-05-23T08:29:23;99155.16;;;20.34;63.69
11212;BME280;5663;50.864;12.096;2023-05-23T08:31:57;99168.47;;;20.42;63.77
11212;BME280;5663;50.864;12.096;2023-05-23T08:34:39;99144.66;;;20.24;63.62
11212;BME280;5663;50.864;12.096;2023-05-23T08:37:08;99178.09;;;20.43;63.13
11212;BME280;5663;50.864;12.096;2023-05-23T08:39:36;99175.94;;;20.47;61.90
11212;BME280;5663;50.864;12.096;2023-05-23T08:42:11;99167.03;;;20.57;61.88
11212;BME280;5663;50.864;12.096;2023-05-23T08:44:41;99154.69;;;20.48;60.86
11212;BME280;5663;50.864;12.096;2023-05-23T08:47:12;99165.66;;;20.53;61.22
11212;BME280;5663;50.864;12.096;2023-05-23T08:50:18;99182.31;;;20.63;60.24
11212;BME280;5663;50.864;12.096;2023-05-23T08:52:52;99185.91;;;20.62;60.64
11212;BME280;5663;50.864;12.096;2023-05-23T08:55:30;99186.91;;;20.61;59.82
11212;BME280;5663;50.864;12.096;2023-05-23T08:58:00;99194.25;;;20.67;60.47
11212;BME280;5663;50.864;12.096;2023-05-23T09:00:32;99186.72;;;20.73;60.56
11212;BME280;5663;50.864;12.096;2023-05-23T09:03:37;99177.13;;;20.72;60.01
11212;BME280;5663;50.864;12.096;2023-05-23T09:06:10;99200.03;;;20.81;59.37
11212;BME280;5663;50.864;12.096;2023-05-23T09:08:41;99185.44;;;20.77;59.19
11212;BME280;5663;50.864;12.096;2023-05-23T09:11:14;99203.41;;;20.73;58.42
11212;BME280;5663;50.864;12.096;2023-05-23T09:13:45;99207.75;;;20.64;58.21
11212;BME280;5663;50.864;12.096;2023-05-23T09:16:37;99206.97;;;20.54;58.67
11212;BME280;5663;50.864;12.096;2023-05-23T09:19:17;99201.28;;;20.49;58.23
11212;BME280;5663;50.864;12.096;2023-05-23T09:21:52;99215.91;;;20.43;58.33
11212;BME280;5663;50.864;12.096;2023-05-23T09:24:21;99196.03;;;20.30;58.20
11212;BME280;5663;50.864;12.096;2023-05-23T09:26:51;99204.38;;;20.35;59.40
11212;BME280;5663;50.864;12.096;2023-05-23T09:29:20;99200.06;;;20.34;59.20
11212;BME280;5663;50.864;12.096;2023-05-23T09:31:48;99201.03;;;20.33;59.03
11212;BME280;5663;50.864;12.096;2023-05-23T09:34:16;99205.06;;;20.37;59.47
11212;BME280;5663;50.864;12.096;2023-05-23T09:37:05;99196.59;;;20.33;58.46
11212;BME280;5663;50.864;12.096;2023-05-23T09:39:36;99192.13;;;20.34;58.17
11212;BME280;5663;50.864;12.096;2023-05-23T09:42:19;99145.81;;;20.02;58.33
11212;BME280;5663;50.864;12.096;2023-05-23T09:45:05;99127.53;;;19.91;58.89
11212;BME280;5663;50.864;12.096;2023-05-23T09:47:37;99204.19;;;20.46;59.17
11212;BME280;5663;50.864;12.096;2023-05-23T09:50:19;99211.84;;;20.59;59.09
11212;BME280;5663;50.864;12.096;2023-05-23T09:53:04;99210.69;;;20.61;57.89
11212;BME280;5663;50.864;12.096;2023-05-23T09:55:37;99199.00;;;20.64;58.15
11212;BME280;5663;50.864;12.096;2023-05-23T09:58:07;99207.31;;;20.69;57.63
11212;BME280;5663;50.864;12.096;2023-05-23T10:00:51;99198.84;;;20.65;57.42
11212;BME280;5663;50.864;12.096;2023-05-23T10:03:30;99207.06;;;20.62;57.67
11212;BME280;5663;50.864;12.096;2023-05-23T10:06:02;99200.41;;;20.58;57.32
11212;BME280;5663;50.864;12.096;2023-05-23T10:08:43;99202.53;;;20.55;57.78
11212;BME280;5663;50.864;12.096;2023-05-23T10:14:20;99209.22;;;20.49;58.00
11212;BME280;5663;50.864;12.096;2023-05-23T10:16:57;99215.72;;;20.45;57.35
11212;BME280;5663;50.864;12.096;2023-05-23T10:19:37;99218.56;;;20.34;57.23
11212;BME280;5663;50.864;12.096;2023-05-23T10:22:17;99212.19;;;20.27;57.56
11212;BME280;5663;50.864;12.096;2023-05-23T10:24:47;99235.53;;;20.31;57.52
11212;BME280;5663;50.864;12.096;2023-05-23T10:27:18;99221.19;;;20.34;58.06
11212;BME280;5663;50.864;12.096;2023-05-23T10:29:49;99215.47;;;20.38;58.33
11212;BME280;5663;50.864;12.096;2023-05-23T10:35:24;99225.28;;;20.65;58.07
11212;BME280;5663;50.864;12.096;2023-05-23T10:38:00;99225.97;;;20.67;57.79
11212;BME280;5663;50.864;12.096;2023-05-23T10:41:05;99194.84;;;20.61;58.08
11212;BME280;5663;50.864;12.096;2023-05-23T10:44:05;99225.56;;;20.90;57.56
11212;BME280;5663;50.864;12.096;2023-05-23T10:47:04;99228.63;;;20.95;57.83
11212;BME280;5663;50.864;12.096;2023-05-23T10:49:40;99232.63;;;20.99;57.81
11212;BME280;5663;50.864;12.096;2023-05-23T10:52:13;99199.44;;;20.87;57.50
11212;BME280;5663;50.864;12.096;2023-05-23T10:55:00;99238.88;;;20.98;56.72
11212;BME280;5663;50.864;12.096;2023-05-23T10:57:40;99242.41;;;20.89;57.26
11212;BME280;5663;50.864;12.096;2023-05-23T11:00:18;99250.41;;;20.79;57.89
11212;BME280;5663;50.864;12.096;2023-05-23T11:03:07;99250.97;;;20.73;58.00
11212;BME280;5663;50.864;12.096;2023-05-23T11:05:52;99244.38;;;20.59;58.32
11212;BME280;5663;50.864;12.096;2023-05-23T11:08:23;99247.47;;;20.55;58.64
11212;BME280;5663;50.864;12.096;2023-05-23T11:11:02;99254.13;;;20.49;58.43
11212;BME280;5663;50.864;12.096;2023-05-23T11:14:00;99254.25;;;20.48;58.51
11212;BME280;5663;50.864;12.096;2023-05-23T11:16:41;99249.69;;;20.40;58.48
11212;BME280;5663;50.864;12.096;2023-05-23T11:19:26;99253.88;;;20.33;58.88
11212;BME280;5663;50.864;12.096;2023-05-23T11:22:09;99258.34;;;20.23;59.17
11212;BME280;5663;50.864;12.096;2023-05-23T11:24:58;99262.53;;;20.15;59.08
11212;BME280;5663;50.864;12.096;2023-05-23T11:27:39;99263.09;;;20.09;59.17
11212;BME280;5663;50.864;12.096;2023-05-23T11:30:27;99218.81;;;19.84;59.79
11212;BME280;5663;50.864;12.096;2023-05-23T11:32:56;99258.41;;;20.03;59.94
11212;BME280;5663;50.864;12.096;2023-05-23T11:35:26;99261.97;;;20.02;60.12
11212;BME280;5663;50.864;12.096;2023-05-23T11:38:04;99253.13;;;20.03;60.54
11212;BME280;5663;50.864;12.096;2023-05-23T11:40:36;99269.34;;;20.08;60.56
11212;BME280;5663;50.864;12.096;2023-05-23T11:43:06;99260.56;;;20.17;60.52
11212;BME280;5663;50.864;12.096;2023-05-23T11:45:38;99270.31;;;20.17;60.59
11212;BME280;5663;50.864;12.096;2023-05-23T11:48:11;99258.91;;;20.16;60.34
11212;BME280;5663;50.864;12.096;2023-05-23T11:50:43;99261.13;;;20.21;60.64
11212;BME280;5663;50.864;12.096;2023-05-23T11:53:16;99259.75;;;20.27;60.98
11212;BME280;5663;50.864;12.096;2023-05-23T11:55:49;99239.72;;;20.14;60.77
11212;BME280;5663;50.864;12.096;2023-05-23T11:58:19;99264.03;;;20.28;60.85
11212;BME280;5663;50.864;12.096;2023-05-23T12:00:48;99261.94;;;20.31;60.54
11212;BME280;5663;50.864;12.096;2023-05-23T12:03:17;99250.00;;;20.27;60.67
11212;BME280;5663;50.864;12.096;2023-05-23T12:05:48;99269.03;;;20.31;60.27
11212;BME280;5663;50.864;12.096;2023-05-23T12:08:16;99263.63;;;20.23;60.27
11212;BME280;5663;50.864;12.096;2023-05-23T12:10:50;99262.66;;;20.24;60.33
11212;BME280;5663;50.864;12.096;2023-05-23T12:13:28;99264.75;;;20.20;60.45
11212;BME280;5663;50.864;12.096;2023-05-23T12:16:03;99261.84;;;20.13;60.09
11212;BME280;5663;50.864;12.096;2023-05-23T12:18:36;99258.09;;;20.06;60.58
11212;BME280;5663;50.864;12.096;2023-05-23T12:21:05;99249.75;;;20.01;60.74
11212;BME280;5663;50.864;12.096;2023-05-23T12:23:35;99258.13;;;19.97;60.69
11212;BME280;5663;50.864;12.096;2023-05-23T12:26:06;99257.56;;;19.93;60.98
11212;BME280;5663;50.864;12.096;2023-05-23T12:28:36;99253.69;;;19.87;60.89
11212;BME280;5663;50.864;12.096;2023-05-23T12:31:15;99263.69;;;19.84;61.36
11212;BME280;5663;50.864;12.096;2023-05-23T12:33:44;99260.59;;;19.79;61.75
11212;BME280;5663;50.864;12.096;2023-05-23T12:36:24;99209.22;;;19.44;61.86
11212;BME280;5663;50.864;12.096;2023-05-23T12:39:04;99251.47;;;19.63;62.05
11212;BME280;5663;50.864;12.096;2023-05-23T12:41:34;99269.63;;;19.66;61.77
11212;BME280;5663;50.864;12.096;2023-05-23T12:44:02;99268.97;;;19.64;61.87
11212;BME280;5663;50.864;12.096;2023-05-23T12:46:32;99276.16;;;19.62;62.29
11212;BME280;5663;50.864;12.096;2023-05-23T12:49:00;99279.78;;;19.61;62.28
11212;BME280;5663;50.864;12.096;2023-05-23T12:51:29;99281.72;;;19.59;62.51
11212;BME280;5663;50.864;12.096;2023-05-23T12:54:12;99283.91;;;19.54;62.51
11212;BME280;5663;50.864;12.096;2023-05-23T12:56:47;99280.03;;;19.49;62.74
11212;BME280;5663;50.864;12.096;2023-05-23T12:59:23;99277.53;;;19.47;62.93
11212;BME280;5663;50.864;12.096;2023-05-23T13:02:04;99283.34;;;19.51;63.28
11212;BME280;5663;50.864;12.096;2023-05-23T13:04:36;99282.97;;;19.55;62.79
11212;BME280;5663;50.864;12.096;2023-05-23T13:07:22;99279.34;;;19.56;62.75
11212;BME280;5663;50.864;12.096;2023-05-23T13:10:12;99281.72;;;19.59;62.68
11212;BME280;5663;50.864;12.096;2023-05-23T13:12:46;99288.25;;;19.55;62.36
11212;BME280;5663;50.864;12.096;2023-05-23T13:15:23;99300.03;;;19.51;62.13
11212;BME280;5663;50.864;12.096;2023-05-23T13:18:11;99296.28;;;19.44;62.36
11212;BME280;5663;50.864;12.096;2023-05-23T13:23:51;99292.25;;;19.40;62.36
11212;BME280;5663;50.864;12.096;2023-05-23T13:26:21;99298.06;;;19.43;62.61
11212;BME280;5663;50.864;12.096;2023-05-23T13:28:49;99292.91;;;19.42;62.68
11212;BME280;5663;50.864;12.096;2023-05-23T13:31:44;99304.19;;;19.44;62.00
11212;BME280;5663;50.864;12.096;2023-05-23T13:34:21;99323.63;;;19.43;61.86
11212;BME280;5663;50.864;12.096;2023-05-23T13:37:11;99312.47;;;19.30;61.75
11212;BME280;5663;50.864;12.096;2023-05-23T13:43:15;99318.56;;;19.20;62.43
11212;BME280;5663;50.864;12.096;2023-05-23T13:45:50;99326.47;;;19.20;62.30
11212;BME280;5663;50.864;12.096;2023-05-23T13:48:24;99322.16;;;19.19;62.50
11212;BME280;5663;50.864;12.096;2023-05-23T13:51:09;99329.09;;;19.20;62.14
11212;BME280;5663;50.864;12.096;2023-05-23T13:53:48;99324.34;;;19.14;61.89
11212;BME280;5663;50.864;12.096;2023-05-23T13:56:30;99294.03;;;18.89;62.04
11212;BME280;5663;50.864;12.096;2023-05-23T13:59:00;99323.25;;;19.07;62.32
11212;BME280;5663;50.864;12.096;2023-05-23T14:01:28;99326.81;;;19.06;62.51
11212;BME280;5663;50.864;12.096;2023-05-23T14:03:56;99337.66;;;19.03;62.42
11212;BME280;5663;50.864;12.096;2023-05-23T14:06:26;99343.88;;;19.02;62.97
11212;BME280;5663;50.864;12.096;2023-05-23T14:08:53;99342.47;;;18.98;63.55
11212;BME280;5663;50.864;12.096;2023-05-23T14:11:24;99347.31;;;18.93;63.71
11212;BME280;5663;50.864;12.096;2023-05-23T14:13:54;99343.41;;;18.87;63.72
11212;BME280;5663;50.864;12.096;2023-05-23T14:16:22;99316.34;;;18.64;63.33
11212;BME280;5663;50.864;12.096;2023-05-23T14:18:51;99308.53;;;18.53;63.69
11212;BME280;5663;50.864;12.096;2023-05-23T14:21:20;99343.09;;;18.81;63.83
11212;BME280;5663;50.864;12.096;2023-05-23T14:23:58;99353.63;;;18.81;63.27
11212;BME280;5663;50.864;12.096;2023-05-23T14:26:39;99350.56;;;18.76;62.89
11212;BME280;5663;50.864;12.096;2023-05-23T14:29:10;99352.38;;;18.75;62.71
11212;BME280;5663;50.864;12.096;2023-05-23T14:31:38;99353.81;;;18.68;62.37
11212;BME280;5663;50.864;12.096;2023-05-23T14:34:18;99347.00;;;18.65;62.17
11212;BME280;5663;50.864;12.096;2023-05-23T14:36:46;99365.44;;;18.65;62.27
11212;BME280;5663;50.864;12.096;2023-05-23T14:39:16;99370.97;;;18.62;61.91
11212;BME280;5663;50.864;12.096;2023-05-23T14:41:45;99373.88;;;18.59;62.17
11212;BME280;5663;50.864;12.096;2023-05-23T14:44:12;99374.50;;;18.52;62.03
11212;BME280;5663;50.864;12.096;2023-05-23T14:46:42;99371.56;;;18.45;61.74
11212;BME280;5663;50.864;12.096;2023-05-23T14:49:15;99375.16;;;18.44;61.91
11212;BME280;5663;50.864;12.096;2023-05-23T14:51:44;99370.53;;;18.36;62.09
11212;BME280;5663;50.864;12.096;2023-05-23T14:54:12;99395.75;;;18.39;62.20
11212;BME280;5663;50.864;12.096;2023-05-23T14:56:44;99388.63;;;18.30;62.06
11212;BME280;5663;50.864;12.096;2023-05-23T14:59:12;99399.28;;;18.28;62.46
11212;BME280;5663;50.864;12.096;2023-05-23T15:01:42;99403.72;;;18.28;62.72
11212;BME280;5663;50.864;12.096;2023-05-23T15:04:14;99403.25;;;18.22;62.84
11212;BME280;5663;50.864;12.096;2023-05-23T15:06:47;99410.00;;;18.15;63.04
11212;BME280;5663;50.864;12.096;2023-05-23T15:09:16;99400.69;;;18.11;62.99
11212;BME280;5663;50.864;12.096;2023-05-23T15:11:46;99385.41;;;17.94;63.23
11212;BME280;5663;50.864;12.096;2023-05-23T15:14:15;99407.13;;;18.07;63.57
11212;BME280;5663;50.864;12.096;2023-05-23T15:16:45;99410.03;;;18.04;63.32
11212;BME280;5663;50.864;12.096;2023-05-23T15:19:14;99415.41;;;18.03;63.59
11212;BME280;5663;50.864;12.096;2023-05-23T15:22:07;99419.81;;;18.02;63.95
11212;BME280;5663;50.864;12.096;2023-05-23T15:24:36;99413.13;;;17.98;63.69
11212;BME280;5663;50.864;12.096;2023-05-23T15:27:06;99414.34;;;17.94;63.92
11212;BME280;5663;50.864;12.096;2023-05-23T15:29:34;99413.66;;;17.92;64.23
11212;BME280;5663;50.864;12.096;2023-05-23T15:32:04;99413.91;;;17.89;64.49
11212;BME280;5663;50.864;12.096;2023-05-23T15:34:40;99410.91;;;17.82;64.39
11212;BME280;5663;50.864;12.096;2023-05-23T15:37:08;99421.56;;;17.81;64.47
11212;BME280;5663;50.864;12.096;2023-05-23T15:40:02;99411.53;;;17.75;64.34
11212;BME280;5663;50.864;12.096;2023-05-23T15:42:42;99415.47;;;17.69;64.57
11212;BME280;5663;50.864;12.096;2023-05-23T15:45:17;99419.16;;;17.66;64.44
11212;BME280;5663;50.864;12.096;2023-05-23T15:47:48;99414.88;;;17.65;64.69
11212;BME280;5663;50.864;12.096;2023-05-23T15:50:36;99424.66;;;17.63;64.59
11212;BME280;5663;50.864;12.096;2023-05-23T15:53:22;99417.97;;;17.59;64.78
11212;BME280;5663;50.864;12.096;2023-05-23T15:56:20;99413.91;;;17.55;64.64
11212;BME280;5663;50.864;12.096;2023-05-23T15:59:17;99422.06;;;17.52;64.71
11212;BME280;5663;50.864;12.096;2023-05-23T16:02:05;99417.28;;;17.46;64.86
11212;BME280;5663;50.864;12.096;2023-05-23T16:04:41;99416.91;;;17.39;64.95
11212;BME280;5663;50.864;12.096;2023-05-23T16:07:45;99416.06;;;17.39;64.94
11212;BME280;5663;50.864;12.096;2023-05-23T16:10:27;99418.25;;;17.34;64.88
11212;BME280;5663;50.864;12.096;2023-05-23T16:12:59;99415.97;;;17.29;64.89
11212;BME280;5663;50.864;12.096;2023-05-23T16:15:46;99400.31;;;17.16;64.92
11212;BME280;5663;50.864;12.096;2023-05-23T16:18:46;99424.00;;;17.28;65.16
11212;BME280;5663;50.864;12.096;2023-05-23T16:21:35;99417.03;;;17.27;64.96
11212;BME280;5663;50.864;12.096;2023-05-23T16:24:20;99422.56;;;17.23;64.77
11212;BME280;5663;50.864;12.096;2023-05-23T16:26:58;99421.81;;;17.21;64.86
11212;BME280;5663;50.864;12.096;2023-05-23T16:29:29;99427.22;;;17.20;64.79
11212;BME280;5663;50.864;12.096;2023-05-23T16:32:08;99432.09;;;17.13;65.13
11212;BME280;5663;50.864;12.096;2023-05-23T16:34:42;99437.13;;;17.16;65.17
11212;BME280;5663;50.864;12.096;2023-05-23T16:37:18;99439.84;;;17.15;65.26
11212;BME280;5663;50.864;12.096;2023-05-23T16:39:47;99448.09;;;17.10;65.17
11212;BME280;5663;50.864;12.096;2023-05-23T16:42:27;99453.84;;;17.04;65.50
11212;BME280;5663;50.864;12.096;2023-05-23T16:44:55;99447.34;;;16.97;65.48
11212;BME280;5663;50.864;12.096;2023-05-23T16:47:32;99446.38;;;16.87;65.52
11212;BME280;5663;50.864;12.096;2023-05-23T16:50:11;99456.88;;;16.87;65.52
11212;BME280;5663;50.864;12.096;2023-05-23T16:52:42;99456.28;;;16.83;65.36
11212;BME280;5663;50.864;12.096;2023-05-23T16:55:11;99451.81;;;16.72;65.50
11212;BME280;5663;50.864;12.096;2023-05-23T16:58:00;99437.69;;;16.62;65.45
11212;BME280;5663;50.864;12.096;2023-05-23T17:00:42;99462.41;;;16.71;65.30
11212;BME280;5663;50.864;12.096;2023-05-23T17:03:14;99463.50;;;16.68;65.40
11212;BME280;5663;50.864;12.096;2023-05-23T17:05:54;99470.56;;;16.68;64.84
11212;BME280;5663;50.864;12.096;2023-05-23T17:08:33;99401.28;;;16.22;64.67
11212;BME280;5663;50.864;12.096;2023-05-23T17:11:17;99483.28;;;16.61;64.49
11212;BME280;5663;50.864;12.096;2023-05-23T17:13:54;99479.34;;;16.56;64.31
11212;BME280;5663;50.864;12.096;2023-05-23T17:16:27;99451.94;;;16.36;64.44
11212;BME280;5663;50.864;12.096;2023-05-23T17:18:59;99489.22;;;16.52;64.58
11212;BME280;5663;50.864;12.096;2023-05-23T17:21:29;99490.41;;;16.48;64.59
11212;BME280;5663;50.864;12.096;2023-05-23T17:23:58;99487.78;;;16.48;64.76
11212;BME280;5663;50.864;12.096;2023-05-23T17:26:34;99491.78;;;16.41;64.81
11212;BME280;5663;50.864;12.096;2023-05-23T17:29:04;99505.63;;;16.43;64.94
11212;BME280;5663;50.864;12.096;2023-05-23T17:31:36;99507.53;;;16.41;64.54
11212;BME280;5663;50.864;12.096;2023-05-23T17:34:06;99513.22;;;16.35;64.73
11212;BME280;5663;50.864;12.096;2023-05-23T17:36:34;99517.22;;;16.27;64.85
11212;BME280;5663;50.864;12.096;2023-05-23T17:39:05;99513.91;;;16.25;64.85
11212;BME280;5663;50.864;12.096;2023-05-23T17:41:34;99511.63;;;16.21;64.85
11212;BME280;5663;50.864;12.096;2023-05-23T19:46:18;99636.41;;;15.48;62.69
11212;BME280;5663;50.864;12.096;2023-05-23T19:49:14;99637.94;;;15.51;62.76
11212;BME280;5663;50.864;12.096;2023-05-23T19:51:48;99644.91;;;15.52;62.30
11212;BME280;5663;50.864;12.096;2023-05-23T19:54:54;99643.19;;;15.51;62.25
11212;BME280;5663;50.864;12.096;2023-05-23T20:00:40;99652.00;;;15.50;62.20
11212;BME280;5663;50.864;12.096;2023-05-23T20:06:45;99657.25;;;15.50;61.91
11212;BME280;5663;50.864;12.096;2023-05-23T20:09:26;99650.34;;;15.49;62.18
11212;BME280;5663;50.864;12.096;2023-05-23T20:12:50;99649.69;;;15.45;61.88
11212;BME280;5663;50.864;12.096;2023-05-23T20:15:54;99666.91;;;15.49;62.39
11212;BME280;5663;50.864;12.096;2023-05-23T20:22:14;99625.00;;;15.22;62.12
11212;BME280;5663;50.864;12.096;2023-05-23T20:25:12;99672.25;;;15.48;62.02
11212;BME280;5663;50.864;12.096;2023-05-23T20:28:05;99676.56;;;15.49;62.23
11212;BME280;5663;50.864;12.096;2023-05-23T20:30:51;99680.13;;;15.48;61.72
11212;BME280;5663;50.864;12.096;2023-05-23T20:33:32;99684.50;;;15.47;62.39
11212;BME280;5663;50.864;12.096;2023-05-23T20:36:22;99679.25;;;15.47;62.48
11212;BME280;5663;50.864;12.096;2023-05-23T20:39:02;99683.66;;;15.47;62.28
